sensor_id;sensor_type;location;lat;lon;timestamp;P1;durP1;ratioP1;P2;durP2;ratioP2
58518;SDS011;44310;48.106;12.008;2022-07-31T00:00:37;8.40;;;3.00;;
58518;SDS011;44310;48.106;12.008;2022-07-31T00:03:05;8.38;;;2.70;;
58518;SDS011;44310;48.106;12.008;2022-07-31T00:05:33;5.70;;;2.10;;
58518;SDS011;44310;48.106;12.008;2022-07-31T00:08:07;6.03;;;2.05;;
58518;SDS011;44310;48.106;12.008;2022-07-31T00:10:35;6.65;;;1.75;;
58518;SDS011;44310;48.106;12.008;2022-07-31T00:13:02;3.05;;;1.45;;
58518;SDS011;44310;48.106;12.008;2022-07-31T00:15:30;1.83;;;1.58;;
58518;SDS011;44310;48.106;12.008;2022-07-31T00:17:57;4.35;;;1.55;;
58518;SDS011;44310;48.106;12.008;2022-07-31T00:20:24;1.65;;;1.52;;
58518;SDS011;44310;48.106;12.008;2022-07-31T00:22:52;6.20;;;2.37;;
58518;SDS011;44310;48.106;12.008;2022-07-31T00:25:20;1.90;;;1.63;;
58518;SDS011;44310;48.106;12.008;2022-07-31T00:27:47;3.17;;;1.77;;
58518;SDS011;44310;48.106;12.008;2022-07-31T00:30:15;5.45;;;2.00;;
58518;SDS011;44310;48.106;12.008;2022-07-31T00:32:43;3.30;;;1.50;;
58518;SDS011;44310;48.106;12.008;2022-07-31T00:35:11;7.83;;;2.43;;
58518;SDS011;44310;48.106;12.008;2022-07-31T00:37:40;2.13;;;1.80;;
58518;SDS011;44310;48.106;12.008;2022-07-31T00:40:09;4.47;;;1.42;;
58518;SDS011;44310;48.106;12.008;2022-07-31T00:42:38;3.65;;;1.90;;
58518;SDS011;44310;48.106;12.008;2022-07-31T00:45:06;4.65;;;1.88;;
58518;SDS011;44310;48.106;12.008;2022-07-31T00:47:34;7.60;;;1.92;;
58518;SDS011;44310;48.106;12.008;2022-07-31T00:50:05;4.80;;;1.85;;
58518;SDS011;44310;48.106;12.008;2022-07-31T00:52:32;6.15;;;2.17;;
58518;SDS011;44310;48.106;12.008;2022-07-31T00:55:00;4.93;;;1.83;;
58518;SDS011;44310;48.106;12.008;2022-07-31T00:57:27;5.73;;;1.90;;
58518;SDS011;44310;48.106;12.008;2022-07-31T00:59:54;5.93;;;1.97;;
58518;SDS011;44310;48.106;12.008;2022-07-31T01:02:23;1.90;;;1.70;;
58518;SDS011;44310;48.106;12.008;2022-07-31T01:04:57;3.63;;;2.53;;
58518;SDS011;44310;48.106;12.008;2022-07-31T01:07:25;4.47;;;1.77;;
58518;SDS011;44310;48.106;12.008;2022-07-31T01:09:52;5.75;;;1.90;;
58518;SDS011;44310;48.106;12.008;2022-07-31T01:12:21;3.17;;;2.40;;
58518;SDS011;44310;48.106;12.008;2022-07-31T01:14:56;4.70;;;1.55;;
58518;SDS011;44310;48.106;12.008;2022-07-31T01:17:25;2.80;;;1.50;;
58518;SDS011;44310;48.106;12.008;2022-07-31T01:19:56;1.23;;;1.23;;
58518;SDS011;44310;48.106;12.008;2022-07-31T01:30:53;2.70;;;1.65;;
58518;SDS011;44310;48.106;12.008;2022-07-31T01:33:48;2.80;;;1.50;;
58518;SDS011;44310;48.106;12.008;2022-07-31T01:36:19;3.60;;;1.40;;
58518;SDS011;44310;48.106;12.008;2022-07-31T01:38:51;1.33;;;1.27;;
58518;SDS011;44310;48.106;12.008;2022-07-31T01:41:24;1.60;;;1.50;;
58518;SDS011;44310;48.106;12.008;2022-07-31T01:43:56;1.42;;;1.25;;
58518;SDS011;44310;48.106;12.008;2022-07-31T01:46:25;1.47;;;1.37;;
58518;SDS011;44310;48.106;12.008;2022-07-31T01:48:54;3.60;;;1.77;;
58518;SDS011;44310;48.106;12.008;2022-07-31T01:51:23;4.40;;;1.63;;
58518;SDS011;44310;48.106;12.008;2022-07-31T01:53:52;1.73;;;1.55;;
58518;SDS011;44310;48.106;12.008;2022-07-31T01:56:21;6.17;;;2.00;;
58518;SDS011;44310;48.106;12.008;2022-07-31T01:58:50;3.08;;;2.08;;
58518;SDS011;44310;48.106;12.008;2022-07-31T02:01:18;2.92;;;1.52;;
58518;SDS011;44310;48.106;12.008;2022-07-31T02:03:53;8.55;;;2.28;;
58518;SDS011;44310;48.106;12.008;2022-07-31T02:06:26;4.95;;;2.08;;
58518;SDS011;44310;48.106;12.008;2022-07-31T02:08:54;6.22;;;2.13;;
58518;SDS011;44310;48.106;12.008;2022-07-31T02:11:22;3.70;;;2.10;;
58518;SDS011;44310;48.106;12.008;2022-07-31T02:13:50;4.32;;;2.17;;
58518;SDS011;44310;48.106;12.008;2022-07-31T02:16:19;5.63;;;2.60;;
58518;SDS011;44310;48.106;12.008;2022-07-31T02:18:47;9.30;;;3.33;;
58518;SDS011;44310;48.106;12.008;2022-07-31T02:21:16;5.03;;;2.03;;
58518;SDS011;44310;48.106;12.008;2022-07-31T02:23:44;9.18;;;2.67;;
58518;SDS011;44310;48.106;12.008;2022-07-31T02:26:11;10.05;;;2.70;;
58518;SDS011;44310;48.106;12.008;2022-07-31T02:28:41;15.73;;;3.47;;
58518;SDS011;44310;48.106;12.008;2022-07-31T02:31:12;5.45;;;2.30;;
58518;SDS011;44310;48.106;12.008;2022-07-31T02:33:42;4.88;;;2.72;;
58518;SDS011;44310;48.106;12.008;2022-07-31T02:36:12;7.82;;;2.35;;
58518;SDS011;44310;48.106;12.008;2022-07-31T02:38:40;6.72;;;2.40;;
58518;SDS011;44310;48.106;12.008;2022-07-31T02:41:10;6.78;;;2.50;;
58518;SDS011;44310;48.106;12.008;2022-07-31T02:43:38;4.90;;;1.60;;
58518;SDS011;44310;48.106;12.008;2022-07-31T02:46:06;11.43;;;3.23;;
58518;SDS011;44310;48.106;12.008;2022-07-31T02:48:35;1.58;;;1.48;;
58518;SDS011;44310;48.106;12.008;2022-07-31T02:51:03;3.00;;;1.90;;
58518;SDS011;44310;48.106;12.008;2022-07-31T02:53:32;5.13;;;1.67;;
58518;SDS011;44310;48.106;12.008;2022-07-31T02:56:00;3.65;;;1.98;;
58518;SDS011;44310;48.106;12.008;2022-07-31T02:58:30;5.32;;;1.88;;
58518;SDS011;44310;48.106;12.008;2022-07-31T03:01:06;1.77;;;1.60;;
58518;SDS011;44310;48.106;12.008;2022-07-31T03:03:34;1.73;;;1.60;;
58518;SDS011;44310;48.106;12.008;2022-07-31T03:06:02;1.70;;;1.60;;
58518;SDS011;44310;48.106;12.008;2022-07-31T03:08:30;7.28;;;2.00;;
58518;SDS011;44310;48.106;12.008;2022-07-31T03:10:57;3.28;;;1.63;;
58518;SDS011;44310;48.106;12.008;2022-07-31T03:13:26;1.30;;;1.20;;
58518;SDS011;44310;48.106;12.008;2022-07-31T03:15:56;2.67;;;1.77;;
58518;SDS011;44310;48.106;12.008;2022-07-31T03:18:25;6.38;;;1.75;;
58518;SDS011;44310;48.106;12.008;2022-07-31T03:20:53;4.38;;;1.98;;
58518;SDS011;44310;48.106;12.008;2022-07-31T03:23:23;2.88;;;1.40;;
58518;SDS011;44310;48.106;12.008;2022-07-31T03:25:51;4.10;;;1.60;;
58518;SDS011;44310;48.106;12.008;2022-07-31T03:28:20;2.00;;;1.40;;
58518;SDS011;44310;48.106;12.008;2022-07-31T03:30:49;2.17;;;1.73;;
58518;SDS011;44310;48.106;12.008;2022-07-31T03:33:22;4.70;;;1.50;;
58518;SDS011;44310;48.106;12.008;2022-07-31T03:35:49;3.58;;;1.80;;
58518;SDS011;44310;48.106;12.008;2022-07-31T03:38:17;2.00;;;1.27;;
58518;SDS011;44310;48.106;12.008;2022-07-31T03:41:04;3.08;;;1.67;;
58518;SDS011;44310;48.106;12.008;2022-07-31T03:43:31;7.83;;;1.70;;
58518;SDS011;44310;48.106;12.008;2022-07-31T03:46:14;3.60;;;1.80;;
58518;SDS011;44310;48.106;12.008;2022-07-31T03:48:44;6.00;;;2.40;;
58518;SDS011;44310;48.106;12.008;2022-07-31T03:51:12;6.55;;;2.08;;
58518;SDS011;44310;48.106;12.008;2022-07-31T03:53:41;4.28;;;2.28;;
58518;SDS011;44310;48.106;12.008;2022-07-31T03:56:08;10.60;;;2.67;;
58518;SDS011;44310;48.106;12.008;2022-07-31T03:58:37;4.07;;;1.83;;
58518;SDS011;44310;48.106;12.008;2022-07-31T04:01:05;2.88;;;1.65;;
58518;SDS011;44310;48.106;12.008;2022-07-31T04:03:37;5.72;;;2.10;;
58518;SDS011;44310;48.106;12.008;2022-07-31T04:06:05;1.70;;;1.60;;
58518;SDS011;44310;48.106;12.008;2022-07-31T04:08:32;2.00;;;1.50;;
58518;SDS011;44310;48.106;12.008;2022-07-31T04:11:00;1.35;;;1.30;;
58518;SDS011;44310;48.106;12.008;2022-07-31T04:13:27;3.13;;;1.58;;
58518;SDS011;44310;48.106;12.008;2022-07-31T04:15:58;2.50;;;1.45;;
58518;SDS011;44310;48.106;12.008;2022-07-31T04:18:26;1.75;;;1.52;;
58518;SDS011;44310;48.106;12.008;2022-07-31T04:20:53;1.38;;;1.30;;
58518;SDS011;44310;48.106;12.008;2022-07-31T04:23:20;7.65;;;3.20;;
58518;SDS011;44310;48.106;12.008;2022-07-31T04:25:58;7.20;;;1.80;;
58518;SDS011;44310;48.106;12.008;2022-07-31T04:28:25;3.03;;;1.63;;
58518;SDS011;44310;48.106;12.008;2022-07-31T04:30:52;2.80;;;1.55;;
58518;SDS011;44310;48.106;12.008;2022-07-31T04:33:20;2.40;;;1.83;;
58518;SDS011;44310;48.106;12.008;2022-07-31T04:35:47;2.10;;;1.60;;
58518;SDS011;44310;48.106;12.008;2022-07-31T04:38:15;2.30;;;1.70;;
58518;SDS011;44310;48.106;12.008;2022-07-31T04:40:42;1.60;;;1.50;;
58518;SDS011;44310;48.106;12.008;2022-07-31T04:43:10;1.60;;;1.50;;
58518;SDS011;44310;48.106;12.008;2022-07-31T04:45:38;2.35;;;1.58;;
58518;SDS011;44310;48.106;12.008;2022-07-31T04:48:05;1.47;;;1.40;;
58518;SDS011;44310;48.106;12.008;2022-07-31T04:50:33;1.60;;;1.50;;
58518;SDS011;44310;48.106;12.008;2022-07-31T04:53:02;1.75;;;1.63;;
58518;SDS011;44310;48.106;12.008;2022-07-31T04:55:29;1.80;;;1.40;;
58518;SDS011;44310;48.106;12.008;2022-07-31T04:57:56;1.80;;;1.30;;
58518;SDS011;44310;48.106;12.008;2022-07-31T05:00:24;1.83;;;1.60;;
58518;SDS011;44310;48.106;12.008;2022-07-31T05:02:52;3.53;;;1.95;;
58518;SDS011;44310;48.106;12.008;2022-07-31T05:05:19;3.95;;;1.70;;
58518;SDS011;44310;48.106;12.008;2022-07-31T05:07:47;2.33;;;1.70;;
58518;SDS011;44310;48.106;12.008;2022-07-31T05:10:14;9.68;;;2.40;;
58518;SDS011;44310;48.106;12.008;2022-07-31T05:13:00;11.27;;;2.30;;
58518;SDS011;44310;48.106;12.008;2022-07-31T05:15:28;10.13;;;2.70;;
58518;SDS011;44310;48.106;12.008;2022-07-31T05:17:55;9.20;;;2.80;;
58518;SDS011;44310;48.106;12.008;2022-07-31T05:20:22;10.00;;;2.90;;
58518;SDS011;44310;48.106;12.008;2022-07-31T05:22:50;4.88;;;2.55;;
58518;SDS011;44310;48.106;12.008;2022-07-31T05:25:18;4.67;;;2.33;;
58518;SDS011;44310;48.106;12.008;2022-07-31T05:27:46;7.55;;;2.35;;
58518;SDS011;44310;48.106;12.008;2022-07-31T05:30:15;5.60;;;2.53;;
58518;SDS011;44310;48.106;12.008;2022-07-31T05:32:55;5.80;;;2.50;;
58518;SDS011;44310;48.106;12.008;2022-07-31T05:35:24;5.82;;;2.25;;
58518;SDS011;44310;48.106;12.008;2022-07-31T05:37:51;9.32;;;2.70;;
58518;SDS011;44310;48.106;12.008;2022-07-31T05:40:19;6.05;;;2.63;;
58518;SDS011;44310;48.106;12.008;2022-07-31T05:42:46;10.23;;;2.25;;
58518;SDS011;44310;48.106;12.008;2022-07-31T05:45:13;5.90;;;2.13;;
58518;SDS011;44310;48.106;12.008;2022-07-31T05:47:41;3.97;;;2.07;;
58518;SDS011;44310;48.106;12.008;2022-07-31T05:50:08;5.20;;;2.10;;
58518;SDS011;44310;48.106;12.008;2022-07-31T05:52:36;2.38;;;1.90;;
58518;SDS011;44310;48.106;12.008;2022-07-31T05:55:04;3.70;;;1.88;;
58518;SDS011;44310;48.106;12.008;2022-07-31T05:57:32;8.05;;;2.95;;
58518;SDS011;44310;48.106;12.008;2022-07-31T06:00:00;3.27;;;1.80;;
58518;SDS011;44310;48.106;12.008;2022-07-31T06:02:29;9.43;;;2.25;;
58518;SDS011;44310;48.106;12.008;2022-07-31T06:04:57;6.60;;;2.30;;
58518;SDS011;44310;48.106;12.008;2022-07-31T06:07:24;6.82;;;2.50;;
58518;SDS011;44310;48.106;12.008;2022-07-31T06:09:52;9.07;;;2.90;;
58518;SDS011;44310;48.106;12.008;2022-07-31T06:12:19;4.28;;;2.10;;
58518;SDS011;44310;48.106;12.008;2022-07-31T06:14:47;3.30;;;1.83;;
58518;SDS011;44310;48.106;12.008;2022-07-31T06:17:14;4.63;;;2.20;;
58518;SDS011;44310;48.106;12.008;2022-07-31T06:19:42;3.10;;;1.80;;
58518;SDS011;44310;48.106;12.008;2022-07-31T06:22:09;7.05;;;2.20;;
58518;SDS011;44310;48.106;12.008;2022-07-31T06:24:36;4.28;;;1.83;;
58518;SDS011;44310;48.106;12.008;2022-07-31T06:27:08;3.90;;;1.80;;
58518;SDS011;44310;48.106;12.008;2022-07-31T06:29:59;5.07;;;2.00;;
58518;SDS011;44310;48.106;12.008;2022-07-31T06:32:27;5.35;;;2.30;;
58518;SDS011;44310;48.106;12.008;2022-07-31T06:34:54;2.08;;;1.75;;
58518;SDS011;44310;48.106;12.008;2022-07-31T06:37:22;3.20;;;2.43;;
58518;SDS011;44310;48.106;12.008;2022-07-31T06:39:49;6.60;;;2.55;;
58518;SDS011;44310;48.106;12.008;2022-07-31T06:42:22;4.78;;;2.45;;
58518;SDS011;44310;48.106;12.008;2022-07-31T06:44:51;4.78;;;2.10;;
58518;SDS011;44310;48.106;12.008;2022-07-31T06:47:21;7.78;;;3.00;;
58518;SDS011;44310;48.106;12.008;2022-07-31T06:49:49;9.15;;;2.20;;
58518;SDS011;44310;48.106;12.008;2022-07-31T06:52:17;5.72;;;2.85;;
58518;SDS011;44310;48.106;12.008;2022-07-31T06:54:44;5.75;;;2.50;;
58518;SDS011;44310;48.106;12.008;2022-07-31T06:57:13;5.05;;;2.47;;
58518;SDS011;44310;48.106;12.008;2022-07-31T06:59:41;6.72;;;2.80;;
58518;SDS011;44310;48.106;12.008;2022-07-31T07:02:08;15.13;;;3.33;;
58518;SDS011;44310;48.106;12.008;2022-07-31T07:04:35;10.18;;;2.53;;
58518;SDS011;44310;48.106;12.008;2022-07-31T07:07:23;12.45;;;2.88;;
58518;SDS011;44310;48.106;12.008;2022-07-31T07:09:57;12.63;;;3.63;;
58518;SDS011;44310;48.106;12.008;2022-07-31T07:12:25;5.10;;;2.10;;
58518;SDS011;44310;48.106;12.008;2022-07-31T07:14:54;8.40;;;2.33;;
58518;SDS011;44310;48.106;12.008;2022-07-31T07:17:21;8.63;;;2.35;;
58518;SDS011;44310;48.106;12.008;2022-07-31T07:19:54;6.57;;;2.70;;
58518;SDS011;44310;48.106;12.008;2022-07-31T07:22:22;5.15;;;2.25;;
58518;SDS011;44310;48.106;12.008;2022-07-31T07:24:58;5.03;;;2.15;;
58518;SDS011;44310;48.106;12.008;2022-07-31T07:27:26;3.47;;;1.83;;
58518;SDS011;44310;48.106;12.008;2022-07-31T07:29:54;5.25;;;1.77;;
58518;SDS011;44310;48.106;12.008;2022-07-31T07:32:22;2.95;;;2.35;;
58518;SDS011;44310;48.106;12.008;2022-07-31T07:34:50;5.33;;;2.83;;
58518;SDS011;44310;48.106;12.008;2022-07-31T07:37:26;4.77;;;2.20;;
58518;SDS011;44310;48.106;12.008;2022-07-31T07:39:55;5.15;;;2.03;;
58518;SDS011;44310;48.106;12.008;2022-07-31T07:42:29;3.75;;;1.98;;
58518;SDS011;44310;48.106;12.008;2022-07-31T07:44:57;4.77;;;1.87;;
58518;SDS011;44310;48.106;12.008;2022-07-31T07:47:24;4.07;;;1.90;;
58518;SDS011;44310;48.106;12.008;2022-07-31T07:50:12;5.35;;;2.03;;
58518;SDS011;44310;48.106;12.008;2022-07-31T07:52:41;7.97;;;2.50;;
58518;SDS011;44310;48.106;12.008;2022-07-31T07:55:09;6.15;;;2.30;;
58518;SDS011;44310;48.106;12.008;2022-07-31T07:57:38;12.45;;;2.90;;
58518;SDS011;44310;48.106;12.008;2022-07-31T08:00:06;8.17;;;3.17;;
58518;SDS011;44310;48.106;12.008;2022-07-31T08:02:35;7.47;;;2.30;;
58518;SDS011;44310;48.106;12.008;2022-07-31T08:05:03;7.93;;;2.95;;
58518;SDS011;44310;48.106;12.008;2022-07-31T08:07:34;8.55;;;2.35;;
58518;SDS011;44310;48.106;12.008;2022-07-31T08:10:08;8.27;;;2.72;;
58518;SDS011;44310;48.106;12.008;2022-07-31T08:12:36;7.65;;;2.95;;
58518;SDS011;44310;48.106;12.008;2022-07-31T08:15:04;9.15;;;2.90;;
58518;SDS011;44310;48.106;12.008;2022-07-31T08:17:32;13.48;;;4.15;;
58518;SDS011;44310;48.106;12.008;2022-07-31T08:19:59;17.52;;;4.57;;
58518;SDS011;44310;48.106;12.008;2022-07-31T08:22:26;15.45;;;4.10;;
58518;SDS011;44310;48.106;12.008;2022-07-31T08:24:54;12.25;;;4.50;;
58518;SDS011;44310;48.106;12.008;2022-07-31T08:27:22;8.90;;;3.57;;
58518;SDS011;44310;48.106;12.008;2022-07-31T08:30:05;11.65;;;3.47;;
58518;SDS011;44310;48.106;12.008;2022-07-31T08:32:33;34.93;;;7.50;;
58518;SDS011;44310;48.106;12.008;2022-07-31T08:35:00;31.60;;;7.93;;
58518;SDS011;44310;48.106;12.008;2022-07-31T08:37:31;6.50;;;2.70;;
58518;SDS011;44310;48.106;12.008;2022-07-31T08:40:19;15.52;;;3.95;;
58518;SDS011;44310;48.106;12.008;2022-07-31T08:42:46;9.03;;;2.93;;
58518;SDS011;44310;48.106;12.008;2022-07-31T08:45:14;9.73;;;2.70;;
58518;SDS011;44310;48.106;12.008;2022-07-31T08:47:43;5.38;;;2.58;;
58518;SDS011;44310;48.106;12.008;2022-07-31T08:50:14;8.82;;;2.70;;
58518;SDS011;44310;48.106;12.008;2022-07-31T08:52:43;7.53;;;2.70;;
58518;SDS011;44310;48.106;12.008;2022-07-31T08:55:11;8.68;;;3.10;;
58518;SDS011;44310;48.106;12.008;2022-07-31T08:57:58;8.60;;;2.63;;
58518;SDS011;44310;48.106;12.008;2022-07-31T09:00:26;7.95;;;2.78;;
58518;SDS011;44310;48.106;12.008;2022-07-31T09:02:54;7.28;;;2.72;;
58518;SDS011;44310;48.106;12.008;2022-07-31T09:05:22;5.90;;;2.60;;
58518;SDS011;44310;48.106;12.008;2022-07-31T09:07:50;11.43;;;3.00;;
58518;SDS011;44310;48.106;12.008;2022-07-31T09:10:18;11.85;;;3.22;;
58518;SDS011;44310;48.106;12.008;2022-07-31T09:12:53;10.20;;;3.10;;
58518;SDS011;44310;48.106;12.008;2022-07-31T09:15:26;7.35;;;2.85;;
58518;SDS011;44310;48.106;12.008;2022-07-31T09:17:55;8.27;;;2.58;;
58518;SDS011;44310;48.106;12.008;2022-07-31T09:20:23;3.20;;;2.85;;
58518;SDS011;44310;48.106;12.008;2022-07-31T09:23:05;6.78;;;2.60;;
58518;SDS011;44310;48.106;12.008;2022-07-31T09:25:35;8.48;;;2.50;;
58518;SDS011;44310;48.106;12.008;2022-07-31T09:28:04;4.87;;;2.83;;
58518;SDS011;44310;48.106;12.008;2022-07-31T09:30:34;8.20;;;2.50;;
58518;SDS011;44310;48.106;12.008;2022-07-31T09:33:21;5.00;;;2.53;;
58518;SDS011;44310;48.106;12.008;2022-07-31T09:35:49;2.90;;;2.30;;
58518;SDS011;44310;48.106;12.008;2022-07-31T09:38:28;3.03;;;2.05;;
58518;SDS011;44310;48.106;12.008;2022-07-31T09:44:01;4.78;;;3.00;;
58518;SDS011;44310;48.106;12.008;2022-07-31T09:46:40;9.02;;;2.60;;
58518;SDS011;44310;48.106;12.008;2022-07-31T09:49:12;2.67;;;1.90;;
58518;SDS011;44310;48.106;12.008;2022-07-31T09:51:41;4.63;;;2.33;;
58518;SDS011;44310;48.106;12.008;2022-07-31T09:54:22;5.88;;;2.35;;
58518;SDS011;44310;48.106;12.008;2022-07-31T09:56:51;3.83;;;2.45;;
58518;SDS011;44310;48.106;12.008;2022-07-31T09:59:18;4.97;;;2.23;;
58518;SDS011;44310;48.106;12.008;2022-07-31T10:01:47;8.52;;;3.30;;
58518;SDS011;44310;48.106;12.008;2022-07-31T10:04:18;8.82;;;2.92;;
58518;SDS011;44310;48.106;12.008;2022-07-31T10:06:47;6.07;;;3.08;;
58518;SDS011;44310;48.106;12.008;2022-07-31T10:09:17;4.87;;;2.53;;
58518;SDS011;44310;48.106;12.008;2022-07-31T10:11:47;6.20;;;2.83;;
58518;SDS011;44310;48.106;12.008;2022-07-31T10:14:17;9.45;;;3.35;;
58518;SDS011;44310;48.106;12.008;2022-07-31T10:16:51;11.45;;;3.13;;
58518;SDS011;44310;48.106;12.008;2022-07-31T10:19:22;10.15;;;3.08;;
58518;SDS011;44310;48.106;12.008;2022-07-31T10:21:56;6.65;;;2.90;;
58518;SDS011;44310;48.106;12.008;2022-07-31T10:24:27;4.32;;;2.00;;
58518;SDS011;44310;48.106;12.008;2022-07-31T10:26:59;6.27;;;2.07;;
58518;SDS011;44310;48.106;12.008;2022-07-31T10:29:36;8.38;;;2.30;;
58518;SDS011;44310;48.106;12.008;2022-07-31T10:32:05;3.60;;;1.98;;
58518;SDS011;44310;48.106;12.008;2022-07-31T10:34:34;5.32;;;2.10;;
58518;SDS011;44310;48.106;12.008;2022-07-31T10:37:06;3.10;;;1.65;;
58518;SDS011;44310;48.106;12.008;2022-07-31T10:39:55;2.67;;;1.70;;
58518;SDS011;44310;48.106;12.008;2022-07-31T10:45:18;2.97;;;1.60;;
58518;SDS011;44310;48.106;12.008;2022-07-31T10:47:56;2.42;;;1.95;;
58518;SDS011;44310;48.106;12.008;2022-07-31T10:50:25;2.13;;;1.92;;
58518;SDS011;44310;48.106;12.008;2022-07-31T10:53:05;2.22;;;1.77;;
58518;SDS011;44310;48.106;12.008;2022-07-31T10:55:37;4.80;;;2.22;;
58518;SDS011;44310;48.106;12.008;2022-07-31T10:58:14;6.68;;;2.05;;
58518;SDS011;44310;48.106;12.008;2022-07-31T11:00:43;2.55;;;2.13;;
58518;SDS011;44310;48.106;12.008;2022-07-31T11:03:18;5.13;;;2.37;;
58518;SDS011;44310;48.106;12.008;2022-07-31T11:05:57;4.47;;;2.20;;
58518;SDS011;44310;48.106;12.008;2022-07-31T11:08:39;6.47;;;2.67;;
58518;SDS011;44310;48.106;12.008;2022-07-31T11:11:08;6.20;;;2.80;;
58518;SDS011;44310;48.106;12.008;2022-07-31T11:13:46;2.00;;;1.73;;
58518;SDS011;44310;48.106;12.008;2022-07-31T11:16:16;2.90;;;2.10;;
58518;SDS011;44310;48.106;12.008;2022-07-31T11:18:55;3.95;;;1.80;;
58518;SDS011;44310;48.106;12.008;2022-07-31T11:21:36;2.20;;;1.63;;
58518;SDS011;44310;48.106;12.008;2022-07-31T11:24:16;5.63;;;2.17;;
58518;SDS011;44310;48.106;12.008;2022-07-31T11:26:54;3.40;;;1.80;;
58518;SDS011;44310;48.106;12.008;2022-07-31T11:32:18;5.05;;;2.13;;
58518;SDS011;44310;48.106;12.008;2022-07-31T11:34:53;7.15;;;2.65;;
58518;SDS011;44310;48.106;12.008;2022-07-31T11:37:25;2.08;;;1.63;;
58518;SDS011;44310;48.106;12.008;2022-07-31T11:40:15;5.82;;;2.70;;
58518;SDS011;44310;48.106;12.008;2022-07-31T11:42:44;8.97;;;3.83;;
58518;SDS011;44310;48.106;12.008;2022-07-31T11:45:25;18.50;;;4.70;;
58518;SDS011;44310;48.106;12.008;2022-07-31T11:47:59;11.27;;;3.38;;
58518;SDS011;44310;48.106;12.008;2022-07-31T11:50:39;9.70;;;4.13;;
58518;SDS011;44310;48.106;12.008;2022-07-31T11:53:07;8.30;;;2.40;;
58518;SDS011;44310;48.106;12.008;2022-07-31T11:58:19;8.43;;;2.25;;
58518;SDS011;44310;48.106;12.008;2022-07-31T12:00:47;7.30;;;2.50;;
58518;SDS011;44310;48.106;12.008;2022-07-31T12:03:17;6.80;;;2.90;;
58518;SDS011;44310;48.106;12.008;2022-07-31T12:05:48;5.70;;;2.03;;
58518;SDS011;44310;48.106;12.008;2022-07-31T12:08:18;4.22;;;2.13;;
58518;SDS011;44310;48.106;12.008;2022-07-31T12:10:47;6.80;;;1.73;;
58518;SDS011;44310;48.106;12.008;2022-07-31T12:13:16;3.50;;;1.77;;
58518;SDS011;44310;48.106;12.008;2022-07-31T12:18:47;2.30;;;1.90;;
58518;SDS011;44310;48.106;12.008;2022-07-31T12:21:29;3.00;;;1.70;;
58518;SDS011;44310;48.106;12.008;2022-07-31T12:23:59;4.28;;;1.70;;
58518;SDS011;44310;48.106;12.008;2022-07-31T12:26:28;4.65;;;2.00;;
58518;SDS011;44310;48.106;12.008;2022-07-31T12:28:59;5.53;;;1.80;;
58518;SDS011;44310;48.106;12.008;2022-07-31T12:34:11;6.07;;;2.30;;
58518;SDS011;44310;48.106;12.008;2022-07-31T12:39:33;4.32;;;1.95;;
58518;SDS011;44310;48.106;12.008;2022-07-31T12:42:23;14.18;;;4.25;;
58518;SDS011;44310;48.106;12.008;2022-07-31T12:44:57;13.52;;;5.15;;
58518;SDS011;44310;48.106;12.008;2022-07-31T12:47:46;12.70;;;3.38;;
58518;SDS011;44310;48.106;12.008;2022-07-31T12:50:21;14.50;;;2.63;;
58518;SDS011;44310;48.106;12.008;2022-07-31T12:52:49;9.70;;;3.53;;
58518;SDS011;44310;48.106;12.008;2022-07-31T12:55:17;6.40;;;3.35;;
58518;SDS011;44310;48.106;12.008;2022-07-31T12:57:45;7.75;;;4.03;;
58518;SDS011;44310;48.106;12.008;2022-07-31T13:00:21;8.07;;;3.10;;
58518;SDS011;44310;48.106;12.008;2022-07-31T13:02:50;7.65;;;3.95;;
58518;SDS011;44310;48.106;12.008;2022-07-31T13:05:18;32.47;;;12.93;;
58518;SDS011;44310;48.106;12.008;2022-07-31T13:07:47;27.53;;;9.73;;
58518;SDS011;44310;48.106;12.008;2022-07-31T13:10:14;16.77;;;7.25;;
58518;SDS011;44310;48.106;12.008;2022-07-31T13:12:49;20.48;;;7.18;;
58518;SDS011;44310;48.106;12.008;2022-07-31T13:15:18;37.83;;;11.50;;
58518;SDS011;44310;48.106;12.008;2022-07-31T13:17:48;35.20;;;12.35;;
58518;SDS011;44310;48.106;12.008;2022-07-31T13:20:17;52.10;;;15.30;;
58518;SDS011;44310;48.106;12.008;2022-07-31T13:22:44;37.67;;;10.93;;
58518;SDS011;44310;48.106;12.008;2022-07-31T13:25:12;11.77;;;4.83;;
58518;SDS011;44310;48.106;12.008;2022-07-31T13:27:40;18.92;;;5.47;;
58518;SDS011;44310;48.106;12.008;2022-07-31T13:30:09;10.95;;;3.20;;
58518;SDS011;44310;48.106;12.008;2022-07-31T13:32:36;6.33;;;3.20;;
58518;SDS011;44310;48.106;12.008;2022-07-31T13:35:04;8.87;;;3.80;;
58518;SDS011;44310;48.106;12.008;2022-07-31T13:37:52;3.22;;;2.33;;
58518;SDS011;44310;48.106;12.008;2022-07-31T13:40:19;14.10;;;4.60;;
58518;SDS011;44310;48.106;12.008;2022-07-31T13:43:07;11.73;;;3.80;;
58518;SDS011;44310;48.106;12.008;2022-07-31T13:45:34;25.13;;;6.60;;
58518;SDS011;44310;48.106;12.008;2022-07-31T13:48:02;35.07;;;8.73;;
58518;SDS011;44310;48.106;12.008;2022-07-31T13:50:35;31.90;;;6.97;;
58518;SDS011;44310;48.106;12.008;2022-07-31T13:53:03;33.15;;;8.15;;
58518;SDS011;44310;48.106;12.008;2022-07-31T13:55:30;18.43;;;4.93;;
58518;SDS011;44310;48.106;12.008;2022-07-31T13:57:58;25.58;;;6.25;;
58518;SDS011;44310;48.106;12.008;2022-07-31T14:00:27;18.70;;;4.83;;
58518;SDS011;44310;48.106;12.008;2022-07-31T14:02:55;23.20;;;5.30;;
58518;SDS011;44310;48.106;12.008;2022-07-31T14:05:23;25.25;;;6.00;;
58518;SDS011;44310;48.106;12.008;2022-07-31T14:07:56;22.60;;;4.68;;
58518;SDS011;44310;48.106;12.008;2022-07-31T14:10:44;41.28;;;8.02;;
58518;SDS011;44310;48.106;12.008;2022-07-31T14:13:17;23.57;;;6.10;;
58518;SDS011;44310;48.106;12.008;2022-07-31T14:15:45;26.65;;;6.20;;
58518;SDS011;44310;48.106;12.008;2022-07-31T14:18:13;32.50;;;7.37;;
58518;SDS011;44310;48.106;12.008;2022-07-31T14:20:41;40.15;;;8.32;;
58518;SDS011;44310;48.106;12.008;2022-07-31T14:23:08;36.53;;;8.65;;
58518;SDS011;44310;48.106;12.008;2022-07-31T14:25:36;43.17;;;7.43;;
58518;SDS011;44310;48.106;12.008;2022-07-31T14:28:05;26.10;;;6.57;;
58518;SDS011;44310;48.106;12.008;2022-07-31T14:30:34;20.70;;;6.07;;
58518;SDS011;44310;48.106;12.008;2022-07-31T14:33:03;18.87;;;4.90;;
58518;SDS011;44310;48.106;12.008;2022-07-31T14:35:30;18.00;;;5.65;;
58518;SDS011;44310;48.106;12.008;2022-07-31T14:37:59;19.23;;;5.37;;
58518;SDS011;44310;48.106;12.008;2022-07-31T14:40:30;9.95;;;4.25;;
58518;SDS011;44310;48.106;12.008;2022-07-31T14:42:57;10.63;;;3.27;;
58518;SDS011;44310;48.106;12.008;2022-07-31T14:45:25;9.38;;;3.25;;
58518;SDS011;44310;48.106;12.008;2022-07-31T14:47:52;13.80;;;3.58;;
58518;SDS011;44310;48.106;12.008;2022-07-31T14:50:21;10.80;;;2.83;;
58518;SDS011;44310;48.106;12.008;2022-07-31T14:52:49;15.05;;;4.32;;
58518;SDS011;44310;48.106;12.008;2022-07-31T14:55:16;6.40;;;3.05;;
58518;SDS011;44310;48.106;12.008;2022-07-31T14:57:45;9.52;;;3.03;;
58518;SDS011;44310;48.106;12.008;2022-07-31T15:00:12;6.97;;;2.70;;
58518;SDS011;44310;48.106;12.008;2022-07-31T15:02:41;5.60;;;2.35;;
58518;SDS011;44310;48.106;12.008;2022-07-31T15:05:10;7.47;;;3.47;;
58518;SDS011;44310;48.106;12.008;2022-07-31T15:07:57;10.18;;;2.72;;
58518;SDS011;44310;48.106;12.008;2022-07-31T15:10:25;6.32;;;2.72;;
58518;SDS011;44310;48.106;12.008;2022-07-31T15:12:52;5.75;;;2.70;;
58518;SDS011;44310;48.106;12.008;2022-07-31T15:15:24;8.85;;;2.80;;
58518;SDS011;44310;48.106;12.008;2022-07-31T15:17:56;4.20;;;1.70;;